Time;durP1;ratioP1;P1;durP2;ratioP2;P2;SDS_P1;SDS_P2;PMS_P1;PMS_P2;Temp;Humidity;BMP_temperature;BMP_pressure;BME280_temperature;BME280_humidity;BME280_pressure;Samples;Min_cycle;Max_cycle;Signal;HPM_P1;HPM_P2
2022/03/15 00:01:55;;;;;;;17.10;6.15;;;;;;;6.12;100.00;102841.28;5071040;28;20051;-29
2022/03/15 00:04:23;;;;;;;14.93;5.57;;;;;;;6.14;100.00;102841.91;5071237;28;20037;-30
2022/03/15 00:06:50;;;;;;;14.23;5.97;;;;;;;6.16;100.00;102843.41;5070023;28;20039;-30
2022/03/15 00:09:18;;;;;;;14.10;5.78;;;;;;;6.19;100.00;102842.94;5071183;28;20396;-28
2022/03/15 00:11:48;;;;;;;10.93;5.03;;;;;;;6.24;100.00;102842.28;5071093;28;20041;-28
2022/03/15 00:14:17;;;;;;;11.85;4.45;;;;;;;6.28;100.00;102839.91;5070315;28;20052;-29
2022/03/15 00:16:45;;;;;;;12.10;5.72;;;;;;;6.32;100.00;102841.16;5061649;28;20070;-28
2022/03/15 00:19:13;;;;;;;13.45;5.30;;;;;;;6.34;100.00;102839.88;5074890;28;20048;-29
2022/03/15 00:21:41;;;;;;;10.45;5.20;;;;;;;6.37;100.00;102839.44;5073879;28;20036;-30
2022/03/15 00:24:09;;;;;;;11.52;5.15;;;;;;;6.39;100.00;102840.06;5075224;28;20047;-28
2022/03/15 00:26:37;;;;;;;12.23;4.85;;;;;;;6.43;100.00;102837.69;5071280;28;20041;-29
2022/03/15 00:29:11;;;;;;;13.30;5.50;;;;;;;6.46;100.00;102837.22;5063142;28;20040;-29
2022/03/15 00:31:41;;;;;;;17.05;5.60;;;;;;;6.50;100.00;102838.50;5074536;28;20055;-28
2022/03/15 00:34:09;;;;;;;10.05;4.85;;;;;;;6.52;100.00;102847.44;5074515;28;20040;-35
2022/03/15 00:36:37;;;;;;;16.15;6.07;;;;;;;6.54;100.00;102843.38;5072390;28;20059;-36
2022/03/15 00:39:05;;;;;;;14.07;5.47;;;;;;;6.57;100.00;102842.09;5071210;28;20093;-35
2022/03/15 00:41:36;;;;;;;15.20;5.32;;;;;;;6.59;100.00;102841.88;5072730;28;20528;-30
2022/03/15 00:44:04;;;;;;;13.82;5.13;;;;;;;6.63;100.00;102845.84;5073290;28;20392;-29
2022/03/15 00:46:32;;;;;;;17.95;5.22;;;;;;;6.65;100.00;102836.25;5074188;28;20042;-29
2022/03/15 00:49:02;;;;;;;11.48;4.72;;;;;;;6.67;100.00;102839.66;5073560;28;20135;-28
2022/03/15 00:51:32;;;;;;;15.35;5.43;;;;;;;6.69;100.00;102837.50;5072903;28;20082;-29
2022/03/15 00:54:02;;;;;;;15.00;5.60;;;;;;;6.71;100.00;102838.13;5072957;28;20052;-29
2022/03/15 00:56:30;;;;;;;13.32;5.68;;;;;;;6.72;100.00;102836.22;5073491;28;20478;-35
2022/03/15 00:58:57;;;;;;;17.55;5.10;;;;;;;6.74;100.00;102832.13;5073936;28;20131;-27
2022/03/15 01:01:25;;;;;;;11.13;4.68;;;;;;;6.76;100.00;102837.47;5074331;28;20401;-28
2022/03/15 01:03:53;;;;;;;12.70;4.53;;;;;;;6.77;100.00;102828.06;5073765;28;20048;-28
2022/03/15 01:06:22;;;;;;;8.80;4.57;;;;;;;6.78;100.00;102824.22;5074042;28;20044;-30
2022/03/15 01:08:50;;;;;;;13.60;5.18;;;;;;;6.75;100.00;102819.13;5074069;28;20055;-28
2022/03/15 01:11:18;;;;;;;15.70;5.43;;;;;;;6.75;100.00;102827.44;5071657;28;20059;-29
2022/03/15 01:13:47;;;;;;;10.88;5.13;;;;;;;6.75;100.00;102813.56;5072349;28;20043;-28
2022/03/15 01:16:14;;;;;;;11.57;5.18;;;;;;;6.75;100.00;102819.97;5073942;28;20052;-27
2022/03/15 01:18:43;;;;;;;11.07;5.05;;;;;;;6.75;100.00;102817.19;5073031;28;20075;-29
2022/03/15 01:21:13;;;;;;;10.13;4.60;;;;;;;6.75;100.00;102821.88;5074380;28;20053;-28
2022/03/15 01:23:43;;;;;;;12.43;5.65;;;;;;;6.74;100.00;102815.50;5073746;28;20517;-30
2022/03/15 01:26:11;;;;;;;14.32;5.85;;;;;;;6.74;100.00;102814.63;5073360;28;20051;-29
2022/03/15 01:28:38;;;;;;;15.32;5.90;;;;;;;6.74;100.00;102809.09;5073042;28;20040;-29
2022/03/15 01:31:07;;;;;;;9.93;5.50;;;;;;;6.75;100.00;102817.19;5071774;28;20086;-31
2022/03/15 01:33:35;;;;;;;11.52;5.47;;;;;;;6.76;100.00;102805.03;5071967;28;20052;-28
2022/03/15 01:36:04;;;;;;;10.23;5.28;;;;;;;6.77;100.00;102806.72;5073715;28;20056;-30
2022/03/15 01:38:34;;;;;;;13.13;5.78;;;;;;;6.76;100.00;102804.16;5072092;28;20452;-31
2022/03/15 01:41:03;;;;;;;16.10;5.63;;;;;;;6.78;100.00;102802.88;5072201;28;20051;-27
2022/03/15 01:43:33;;;;;;;14.45;5.82;;;;;;;6.78;100.00;102802.03;5073549;28;20052;-28
2022/03/15 01:46:01;;;;;;;9.02;4.80;;;;;;;6.77;100.00;102795.63;5071899;28;20488;-28
2022/03/15 01:48:29;;;;;;;10.27;5.05;;;;;;;6.75;100.00;102797.75;5073364;28;20075;-27
2022/03/15 01:50:57;;;;;;;10.63;5.28;;;;;;;6.74;100.00;102795.22;5073044;28;20053;-28
2022/03/15 01:53:27;;;;;;;17.05;5.80;;;;;;;6.73;100.00;102791.59;5072673;28;20374;-28
2022/03/15 01:55:55;;;;;;;11.23;5.68;;;;;;;6.72;100.00;102800.13;5071947;28;20079;-28
2022/03/15 01:58:25;;;;;;;12.68;5.60;;;;;;;6.72;100.00;102795.44;5071678;28;20118;-28
2022/03/15 02:00:53;;;;;;;12.00;5.63;;;;;;;6.72;100.00;102789.03;5070921;28;20118;-28
2022/03/15 02:03:21;;;;;;;14.30;5.63;;;;;;;6.73;100.00;102787.97;5072924;28;20543;-27
2022/03/15 02:05:49;;;;;;;10.98;4.47;;;;;;;6.72;100.00;102780.72;5072894;28;20135;-27
2022/03/15 02:08:18;;;;;;;12.02;5.22;;;;;;;6.73;100.00;102783.28;5072228;28;20041;-28
2022/03/15 02:10:46;;;;;;;14.77;6.78;;;;;;;6.74;100.00;102782.19;5072709;28;20047;-29
2022/03/15 02:13:15;;;;;;;12.15;6.03;;;;;;;6.74;100.00;102784.13;5071917;28;20387;-28
2022/03/15 02:15:44;;;;;;;11.60;5.53;;;;;;;6.74;100.00;102778.56;5072582;28;20051;-28
2022/03/15 02:18:12;;;;;;;11.75;5.93;;;;;;;6.73;100.00;102777.72;5071137;28;20033;-28
2022/03/15 02:20:41;;;;;;;10.48;6.55;;;;;;;6.75;100.00;102769.19;5072026;28;20050;-29
2022/03/15 02:23:12;;;;;;;9.50;5.45;;;;;;;6.71;100.00;102768.78;5072632;28;20044;-32
2022/03/15 02:25:40;;;;;;;10.65;5.82;;;;;;;6.71;100.00;102766.00;5072543;28;20048;-34
2022/03/15 02:28:08;;;;;;;18.25;6.88;;;;;;;6.71;100.00;102762.38;5060613;28;20076;-32
2022/03/15 02:30:36;;;;;;;9.68;5.70;;;;;;;6.71;100.00;102759.59;5071328;28;20074;-29
2022/03/15 02:33:04;;;;;;;11.57;5.65;;;;;;;6.71;100.00;102754.91;5072381;28;20581;-28
2022/03/15 02:35:32;;;;;;;16.05;6.47;;;;;;;6.71;100.00;102759.59;5071531;28;20079;-28
2022/03/15 02:38:01;;;;;;;12.85;6.38;;;;;;;6.69;100.00;102754.28;5072426;28;20051;-29
2022/03/15 02:40:30;;;;;;;11.32;6.05;;;;;;;6.69;100.00;102758.97;5071143;28;20493;-29
2022/03/15 02:42:57;;;;;;;10.23;6.38;;;;;;;6.67;100.00;102755.56;5071331;28;20497;-29
2022/03/15 02:45:26;;;;;;;10.75;6.43;;;;;;;6.66;100.00;102760.28;5072482;28;20047;-29
2022/03/15 02:47:56;;;;;;;11.90;6.57;;;;;;;6.65;100.00;102744.69;5072017;28;20119;-27
2022/03/15 02:50:24;;;;;;;11.15;6.25;;;;;;;6.65;100.00;102743.84;5071210;28;20052;-29
2022/03/15 02:52:52;;;;;;;11.18;6.07;;;;;;;6.64;100.00;102745.78;5071829;28;20072;-27
2022/03/15 02:55:21;;;;;;;10.68;6.80;;;;;;;6.64;100.00;102754.09;5062685;28;20049;-28
2022/03/15 02:57:50;;;;;;;10.88;6.00;;;;;;;6.64;100.00;102753.25;5071686;28;20044;-28
2022/03/15 03:00:17;;;;;;;15.52;7.38;;;;;;;6.65;100.00;102754.94;5072112;28;20059;-27
2022/03/15 03:02:45;;;;;;;11.60;6.32;;;;;;;6.65;100.00;102752.16;5071129;28;20044;-30
2022/03/15 03:05:13;;;;;;;11.35;6.40;;;;;;;6.65;100.00;102752.16;5071806;28;20062;-27
2022/03/15 03:07:41;;;;;;;11.57;6.28;;;;;;;6.67;100.00;102744.47;5071546;28;20519;-28
2022/03/15 03:10:09;;;;;;;11.45;6.40;;;;;;;6.66;100.00;102742.78;5070846;28;20056;-27
2022/03/15 03:12:41;;;;;;;11.23;5.80;;;;;;;6.65;100.00;102738.31;5071683;28;20397;-28
2022/03/15 03:15:12;;;;;;;;;;;;;;;6.62;100.00;102741.53;5072133;28;20044;-28
2022/03/15 03:17:41;;;;;;;9.23;4.43;;;;;;;6.58;100.00;102735.63;5070974;28;20012;-30
2022/03/15 03:20:10;;;;;;;7.70;4.40;;;;;;;6.59;100.00;102731.75;5071668;28;20056;-28
2022/03/15 03:22:38;;;;;;;9.40;5.38;;;;;;;6.60;100.00;102730.66;5071771;28;20362;-28
2022/03/15 03:25:07;;;;;;;11.90;4.95;;;;;;;6.59;100.00;102729.00;5071026;28;20048;-29
2022/03/15 03:27:35;;;;;;;11.60;5.93;;;;;;;6.57;100.00;102729.22;5071391;28;20493;-29
2022/03/15 03:30:05;;;;;;;7.65;4.38;;;;;;;6.56;100.00;102721.97;5071627;28;20497;-27
2022/03/15 03:32:32;;;;;;;10.20;4.72;;;;;;;6.53;100.00;102725.19;5070415;28;20036;-28
2022/03/15 03:35:04;;;;;;;10.90;4.78;;;;;;;6.49;100.00;102726.72;5071374;28;20053;-28
2022/03/15 03:37:32;;;;;;;11.27;5.40;;;;;;;6.48;100.00;102729.72;5070113;28;20045;-28
2022/03/15 03:40:05;;;;;;;8.38;4.05;;;;;;;6.47;100.00;102728.84;5071386;28;20075;-30
2022/03/15 03:42:32;;;;;;;10.57;4.32;;;;;;;6.45;100.00;102719.91;5071310;28;20143;-27
2022/03/15 03:45:00;;;;;;;9.10;4.32;;;;;;;6.44;100.00;102725.69;5070745;28;20063;-28
2022/03/15 03:47:30;;;;;;;5.63;3.03;;;;;;;6.45;100.00;102725.47;5071101;28;20408;-29
2022/03/15 03:49:57;;;;;;;5.72;3.17;;;;;;;6.45;100.00;102730.16;5071299;28;20041;-28
2022/03/15 03:52:26;;;;;;;5.95;2.90;;;;;;;6.45;100.00;102730.16;5074957;28;20064;-28
2022/03/15 03:54:53;;;;;;;6.28;3.38;;;;;;;6.43;100.00;102730.38;5077720;28;20056;-27
2022/03/15 03:57:21;;;;;;;8.02;3.88;;;;;;;6.43;100.00;102733.16;5077545;28;20494;-30
2022/03/15 03:59:49;;;;;;;10.88;4.45;;;;;;;6.41;100.00;102738.06;5076803;28;20060;-31
2022/03/15 04:02:16;;;;;;;9.63;4.82;;;;;;;6.39;100.00;102729.16;5077444;28;20398;-27
2022/03/15 04:04:47;;;;;;;8.48;3.92;;;;;;;6.39;100.00;102731.09;5077799;28;20409;-28
2022/03/15 04:07:14;;;;;;;10.25;4.30;;;;;;;6.38;100.00;102721.91;5076972;28;20516;-32
2022/03/15 04:09:42;;;;;;;8.75;4.20;;;;;;;6.37;100.00;102733.22;5077527;28;20040;-36
2022/03/15 04:12:10;;;;;;;7.65;3.88;;;;;;;6.36;100.00;102732.38;5077580;28;20397;-36
2022/03/15 04:14:38;;;;;;;5.05;2.95;;;;;;;6.35;100.00;102730.69;5066034;28;20044;-28
2022/03/15 04:17:06;;;;;;;4.57;2.40;;;;;;;6.34;100.00;102740.06;5077510;28;20047;-29
2022/03/15 04:19:34;;;;;;;6.97;2.80;;;;;;;6.35;100.00;102736.22;5077929;28;20196;-29
2022/03/15 04:22:04;;;;;;;7.70;3.10;;;;;;;6.35;100.00;102739.00;5077440;28;20202;-31
2022/03/15 04:24:32;;;;;;;9.38;3.88;;;;;;;6.34;100.00;102736.44;5077566;28;20037;-28
2022/03/15 04:27:01;;;;;;;8.88;4.60;;;;;;;6.32;100.00;102730.28;5076882;28;20405;-29
2022/03/15 04:29:29;;;;;;;9.40;4.32;;;;;;;6.30;100.00;102733.28;5076945;28;20036;-27
2022/03/15 04:31:57;;;;;;;9.88;4.88;;;;;;;6.30;100.00;102722.19;5077564;28;20071;-30
2022/03/15 04:34:26;;;;;;;9.70;4.63;;;;;;;6.29;100.00;102731.56;5075128;28;20051;-27
2022/03/15 04:36:53;;;;;;;9.27;4.32;;;;;;;6.29;100.00;102727.94;5076990;28;20120;-28
2022/03/15 04:39:23;;;;;;;8.77;4.28;;;;;;;6.27;100.00;102730.09;5077387;28;20060;-27
2022/03/15 04:41:51;;;;;;;8.57;4.68;;;;;;;6.24;100.00;102723.06;5075800;28;20049;-27
2022/03/15 04:44:19;;;;;;;7.85;4.57;;;;;;;6.22;100.00;102723.28;5077587;28;20045;-28
2022/03/15 04:46:47;;;;;;;7.70;4.13;;;;;;;6.22;100.00;102722.44;5077124;28;20054;-29
2022/03/15 04:49:15;;;;;;;11.20;4.88;;;;;;;6.22;100.00;102714.97;5076604;28;20040;-28
2022/03/15 04:51:43;;;;;;;7.85;4.50;;;;;;;6.23;100.00;102704.72;5077167;28;20051;-28
2022/03/15 04:54:11;;;;;;;12.23;5.32;;;;;;;6.22;100.00;102703.03;5077250;28;20053;-36
2022/03/15 04:56:41;;;;;;;9.48;5.40;;;;;;;6.23;100.00;102708.34;5076356;28;20040;-28
2022/03/15 04:59:09;;;;;;;10.02;4.95;;;;;;;6.23;100.00;102696.41;5076065;28;20084;-29
2022/03/15 05:01:37;;;;;;;8.30;4.35;;;;;;;6.23;100.00;102694.50;5076957;28;20055;-28
2022/03/15 05:04:05;;;;;;;9.23;3.97;;;;;;;6.25;100.00;102691.50;5072942;28;20139;-28
2022/03/15 05:06:33;;;;;;;10.35;4.57;;;;;;;6.27;100.00;102688.50;5073956;28;20048;-28
2022/03/15 05:09:01;;;;;;;9.00;4.70;;;;;;;6.25;100.00;102680.41;5072909;28;20068;-28
2022/03/15 05:11:28;;;;;;;9.77;4.90;;;;;;;6.26;100.00;102679.34;5073854;28;20127;-30
2022/03/15 05:13:57;;;;;;;9.07;4.57;;;;;;;6.28;100.00;102685.50;5073841;28;20092;-32
2022/03/15 05:16:24;;;;;;;10.80;4.65;;;;;;;6.27;100.00;102681.03;5072865;28;20469;-27
2022/03/15 05:18:54;;;;;;;13.18;5.30;;;;;;;6.29;100.00;102675.28;5073771;28;20044;-28
2022/03/15 05:21:25;;;;;;;14.32;5.63;;;;;;;6.30;100.00;102677.81;5073566;28;20409;-29
2022/03/15 05:23:55;;;;;;;11.20;5.45;;;;;;;6.32;100.00;102674.81;5073156;28;20150;-29
2022/03/15 05:26:23;;;;;;;9.23;4.78;;;;;;;6.33;100.00;102674.59;5073198;28;20052;-29
2022/03/15 05:28:51;;;;;;;10.02;4.82;;;;;;;6.34;100.00;102673.53;5073577;28;20040;-28
2022/03/15 05:31:22;;;;;;;8.05;4.53;;;;;;;6.34;100.00;102676.28;5072486;28;20059;-28
2022/03/15 05:33:57;;;;;;;10.13;4.93;;;;;;;6.33;100.00;102677.38;5070968;28;20087;-28
2022/03/15 05:36:25;;;;;;;10.88;4.93;;;;;;;6.34;100.00;102681.00;5073400;28;20139;-28
2022/03/15 05:38:53;;;;;;;8.23;4.63;;;;;;;6.34;100.00;102673.53;5072188;28;20050;-34
2022/03/15 05:41:21;;;;;;;10.88;4.95;;;;;;;6.34;100.00;102681.00;5073312;28;20370;-28
2022/03/15 05:43:54;;;;;;;11.90;4.63;;;;;;;6.35;100.00;102675.22;5072473;28;20056;-29
2022/03/15 05:46:23;;;;;;;9.55;4.80;;;;;;;6.36;100.00;102676.06;5071257;28;20052;-28
2022/03/15 05:48:52;;;;;;;8.45;4.60;;;;;;;6.36;100.00;102670.53;5072057;28;20079;-28
2022/03/15 05:51:20;;;;;;;9.43;4.45;;;;;;;6.35;100.00;102672.44;5071197;28;20071;-28
2022/03/15 05:53:48;;;;;;;9.73;4.68;;;;;;;6.34;100.00;102667.97;5071728;28;20106;-29
2022/03/15 05:56:15;;;;;;;8.82;4.85;;;;;;;6.35;100.00;102669.69;5071418;28;20045;-34
2022/03/15 05:58:46;;;;;;;13.40;5.30;;;;;;;6.34;100.00;102672.69;5070707;28;20409;-31
2022/03/15 06:01:13;;;;;;;11.27;4.78;;;;;;;6.34;100.00;102676.28;5071906;28;20449;-35
2022/03/15 06:03:43;;;;;;;9.40;4.55;;;;;;;6.34;100.00;102669.91;5069336;28;20497;-29
2022/03/15 06:06:11;;;;;;;8.30;4.82;;;;;;;6.33;100.00;102673.75;5070057;28;20044;-35
2022/03/15 06:08:38;;;;;;;12.10;5.65;;;;;;;6.33;100.00;102676.53;5071477;28;20398;-29
2022/03/15 06:11:07;;;;;;;12.38;5.55;;;;;;;6.32;100.00;102672.91;5071379;28;20457;-28
2022/03/15 06:13:35;;;;;;;12.45;5.38;;;;;;;6.32;100.00;102670.13;5059737;28;20059;-28
2022/03/15 06:16:03;;;;;;;9.48;4.90;;;;;;;6.35;100.00;102671.59;5071436;28;20464;-29
2022/03/15 06:18:31;;;;;;;10.23;5.18;;;;;;;6.35;100.00;102672.44;5071559;28;20119;-28
2022/03/15 06:21:00;;;;;;;13.35;5.18;;;;;;;6.37;100.00;102678.63;5070884;28;20051;-29
2022/03/15 06:23:27;;;;;;;12.85;6.35;;;;;;;6.38;100.00;102680.31;5071285;28;20044;-29
2022/03/15 06:25:55;;;;;;;13.23;5.88;;;;;;;6.40;100.00;102675.38;5071935;28;20036;-27
2022/03/15 06:28:23;;;;;;;10.00;5.32;;;;;;;6.41;100.00;102671.53;5070186;28;20048;-28
2022/03/15 06:30:51;;;;;;;11.50;5.53;;;;;;;6.44;100.00;102673.84;5072620;28;20032;-30
2022/03/15 06:33:19;;;;;;;12.90;5.43;;;;;;;6.47;100.00;102664.22;5071434;28;20052;-29
2022/03/15 06:35:49;;;;;;;10.63;5.45;;;;;;;6.50;100.00;102672.09;5071099;28;20055;-24
2022/03/15 06:38:18;;;;;;;9.90;5.05;;;;;;;6.53;100.00;102672.50;5070292;28;20076;-31
2022/03/15 06:40:48;;;;;;;13.68;5.18;;;;;;;6.55;100.00;102672.28;5068152;28;20045;-29
2022/03/15 06:43:16;;;;;;;10.18;5.03;;;;;;;6.58;100.00;102666.28;5070156;28;20501;-28
2022/03/15 06:45:44;;;;;;;14.68;5.40;;;;;;;6.60;100.00;102666.84;5070136;28;20455;-27
2022/03/15 06:48:12;;;;;;;10.02;5.45;;;;;;;6.63;100.00;102665.56;5069103;28;20041;-26
2022/03/15 06:50:40;;;;;;;8.38;5.18;;;;;;;6.65;100.00;102663.41;5069820;28;20051;-27
2022/03/15 06:53:08;;;;;;;9.55;4.90;;;;;;;6.69;100.00;102659.09;5070260;28;20036;-28
2022/03/15 06:55:37;;;;;;;10.52;5.20;;;;;;;6.72;100.00;102659.50;5071195;28;20060;-27
2022/03/15 06:58:05;;;;;;;11.32;5.05;;;;;;;6.77;100.00;102667.13;5071854;28;20049;-28
2022/03/15 07:00:33;;;;;;;10.15;5.13;;;;;;;6.81;100.00;102665.56;5071597;28;20043;-28
2022/03/15 07:03:01;;;;;;;11.35;5.18;;;;;;;6.86;100.00;102663.81;5071164;28;20055;-27
2022/03/15 07:05:29;;;;;;;11.75;5.07;;;;;;;6.92;100.00;102670.38;5071639;28;20102;-27
2022/03/15 07:07:57;;;;;;;9.27;4.93;;;;;;;6.98;100.00;102665.84;5071833;28;20130;-28
2022/03/15 07:10:24;;;;;;;11.80;5.00;;;;;;;7.03;100.00;102666.81;5070867;28;20513;-27
2022/03/15 07:12:54;;;;;;;6.78;4.38;;;;;;;7.07;100.00;102672.75;5071779;28;20405;-27
2022/03/15 07:15:21;;;;;;;8.27;4.95;;;;;;;7.11;100.00;102666.53;5071566;28;20413;-30
2022/03/15 07:17:51;;;;;;;9.90;5.10;;;;;;;7.17;100.00;102673.94;5070865;28;20535;-29
2022/03/15 07:20:19;;;;;;;6.47;4.30;;;;;;;7.21;100.00;102663.19;5071266;28;20037;-29
2022/03/15 07:22:47;;;;;;;10.38;5.22;;;;;;;7.25;100.00;102669.97;5071149;28;20047;-33
2022/03/15 07:25:16;;;;;;;9.65;5.40;;;;;;;7.30;100.00;102672.91;5070894;28;20055;-31
2022/03/15 07:27:43;;;;;;;8.27;4.97;;;;;;;7.36;100.00;102669.22;5071060;28;20037;-30
2022/03/15 07:30:13;;;;;;;9.98;4.95;;;;;;;7.40;100.00;102667.63;5070516;28;20379;-28
2022/03/15 07:32:41;;;;;;;13.63;5.95;;;;;;;7.45;100.00;102664.16;5070018;28;20041;-29
2022/03/15 07:35:09;;;;;;;14.82;7.35;;;;;;;7.49;100.00;102670.94;5071489;28;20512;-27
2022/03/15 07:37:37;;;;;;;10.95;5.95;;;;;;;7.50;100.00;102662.38;5070806;28;20052;-29
2022/03/15 07:40:06;;;;;;;7.82;5.40;;;;;;;7.54;100.00;102654.44;5069680;28;20052;-28
2022/03/15 07:42:33;;;;;;;10.15;5.88;;;;;;;7.58;100.00;102655.66;5071151;28;20072;-35
2022/03/15 07:45:01;;;;;;;11.77;6.93;;;;;;;7.61;100.00;102655.16;5062338;28;20047;-33
2022/03/15 07:47:30;;;;;;;12.90;7.20;;;;;;;7.65;100.00;102661.09;5071064;28;20142;-30
2022/03/15 07:49:58;;;;;;;12.07;6.72;;;;;;;7.67;100.00;102662.56;5071339;28;20047;-35
2022/03/15 07:52:26;;;;;;;10.93;6.90;;;;;;;7.70;100.00;102662.09;5070215;28;20048;-29
2022/03/15 07:54:54;;;;;;;15.98;7.82;;;;;;;7.74;100.00;102662.47;5071171;28;20046;-30
2022/03/15 07:57:22;;;;;;;11.68;6.55;;;;;;;7.77;100.00;102659.25;5071157;28;20157;-30
2022/03/15 07:59:50;;;;;;;13.68;7.47;;;;;;;7.81;100.00;102664.06;5070274;28;20094;-27
2022/03/15 08:02:18;;;;;;;12.55;6.80;;;;;;;7.85;100.00;102661.66;5070945;28;20037;-28
2022/03/15 08:04:47;;;;;;;16.05;8.18;;;;;;;7.90;100.00;102659.88;5070276;28;20387;-29
2022/03/15 08:07:15;;;;;;;12.90;7.72;;;;;;;7.95;100.00;102668.34;5069594;28;20638;-28
2022/03/15 08:09:42;;;;;;;15.15;8.82;;;;;;;8.00;100.00;102662.06;5071053;28;20409;-27
2022/03/15 08:12:10;;;;;;;20.30;10.27;;;;;;;8.03;100.00;102667.16;5069859;28;20426;-29
2022/03/15 08:14:38;;;;;;;16.63;9.68;;;;;;;8.09;100.00;102659.78;5070961;28;20146;-27
2022/03/15 08:17:06;;;;;;;15.25;8.90;;;;;;;8.13;100.00;102661.88;5070855;28;20390;-27
2022/03/15 08:19:33;;;;;;;15.30;9.25;;;;;;;8.20;100.00;102670.09;5070490;28;20072;-28
2022/03/15 08:22:03;;;;;;;13.52;8.75;;;;;;;8.25;100.00;102671.06;5070772;28;20052;-27
2022/03/15 08:24:31;;;;;;;14.52;9.20;;;;;;;8.30;100.00;102678.69;5071124;28;20066;-28
2022/03/15 08:26:59;;;;;;;18.38;10.82;;;;;;;8.32;100.00;102670.13;5069964;28;20049;-28
2022/03/15 08:29:29;;;;;;;18.40;10.15;;;;;;;8.33;100.00;102675.47;5071146;28;20084;-30
2022/03/15 08:32:01;;;;;;;19.63;11.88;;;;;;;8.34;100.00;102667.97;5071183;28;20102;-30
2022/03/15 08:34:29;;;;;;;18.05;12.43;;;;;;;8.35;100.00;102667.75;5070083;28;20062;-27
2022/03/15 08:36:57;;;;;;;20.20;11.60;;;;;;;8.42;100.00;102664.81;5070877;28;20047;-27
2022/03/15 08:39:26;;;;;;;17.08;10.98;;;;;;;8.47;100.00;102663.03;5072765;28;20053;-28
2022/03/15 08:41:54;;;;;;;15.82;10.13;;;;;;;8.53;100.00;102650.09;5065834;28;20126;-27
2022/03/15 08:44:23;;;;;;;18.13;11.80;;;;;;;8.62;100.00;102660.59;5074539;28;20135;-30
2022/03/15 08:46:51;;;;;;;20.80;13.57;;;;;;;8.70;100.00;102658.56;5074551;28;20041;-27
2022/03/15 08:49:21;;;;;;;15.35;10.18;;;;;;;8.76;100.00;102655.66;5074362;28;20048;-28
2022/03/15 08:51:50;;;;;;;19.83;11.77;;;;;;;8.83;100.00;102655.50;5074015;28;20053;-32
2022/03/15 08:54:18;;;;;;;21.48;12.75;;;;;;;8.85;100.00;102653.31;5073529;28;20057;-28
2022/03/15 08:56:47;;;;;;;15.88;10.65;;;;;;;8.88;100.00;102648.13;5074360;28;20037;-29
2022/03/15 08:59:16;;;;;;;16.63;11.38;;;;;;;8.97;100.00;102648.59;5074249;28;20049;-27
2022/03/15 09:01:44;;;;;;;16.25;10.80;;;;;;;9.07;100.00;102646.03;5073517;28;20052;-29
2022/03/15 09:04:12;;;;;;;19.77;11.82;;;;;;;9.18;100.00;102647.09;5073881;28;20040;-28
2022/03/15 09:06:41;;;;;;;21.77;12.70;;;;;;;9.30;100.00;102650.69;5074341;28;20049;-28
2022/03/15 09:09:09;;;;;;;17.63;12.02;;;;;;;9.38;100.00;102647.53;5073379;28;20481;-28
2022/03/15 09:11:38;;;;;;;18.42;11.80;;;;;;;9.45;100.00;102639.00;5074011;28;20053;-30
2022/03/15 09:14:07;;;;;;;20.15;13.25;;;;;;;9.48;100.00;102641.31;5073893;28;20379;-28
2022/03/15 09:16:34;;;;;;;19.13;12.63;;;;;;;9.51;100.00;102640.81;5073332;28;20060;-29
2022/03/15 09:19:02;;;;;;;16.75;10.90;;;;;;;9.57;100.00;102635.09;5073438;28;20140;-30
2022/03/15 09:21:30;;;;;;;18.13;11.95;;;;;;;9.65;100.00;102633.81;5074369;28;20051;-29
2022/03/15 09:23:57;;;;;;;19.65;12.88;;;;;;;9.71;100.00;102634.78;5072928;28;20059;-32
2022/03/15 09:26:26;;;;;;;17.35;11.52;;;;;;;9.77;100.00;102631.00;5073402;28;20040;-32
2022/03/15 09:28:53;;;;;;;19.85;12.90;;;;;;;9.84;100.00;102629.72;5073494;28;20414;-31
2022/03/15 09:31:23;;;;;;;18.73;10.70;;;;;;;9.87;100.00;102631.16;5073036;28;20051;-29
2022/03/15 09:33:51;;;;;;;20.05;12.25;;;;;;;9.89;100.00;102629.81;5073763;28;20075;-30
2022/03/15 09:36:19;;;;;;;18.23;12.00;;;;;;;9.92;100.00;102634.06;5072829;28;20063;-29
2022/03/15 09:38:47;;;;;;;20.02;12.73;;;;;;;9.94;100.00;102629.94;5063426;28;20048;-29
2022/03/15 09:41:18;;;;;;;21.77;13.55;;;;;;;9.97;100.00;102626.63;5071994;28;20048;-28
2022/03/15 09:43:47;;;;;;;17.45;12.23;;;;;;;9.99;100.00;102624.41;5072670;28;20483;-28
2022/03/15 09:46:17;;;;;;;17.08;11.18;;;;;;;10.06;100.00;102623.41;5073199;28;20099;-28
2022/03/15 09:49:06;;;;;;;19.52;12.23;;;;;;;10.12;100.00;102616.84;5072812;28;20055;-32
2022/03/15 09:51:35;;;;;;;13.48;10.23;;;;;;;10.19;100.00;102617.56;5072396;28;20048;-30
2022/03/15 09:54:04;;;;;;;18.73;11.77;;;;;;;10.29;100.00;102614.91;5073172;28;20405;-33
2022/03/15 09:56:38;;;;;;;18.38;12.23;;;;;;;10.41;100.00;102621.22;5072935;28;20044;-31
2022/03/15 09:59:11;;;;;;;16.85;12.13;;;;;;;10.49;100.00;102611.59;5072634;28;20462;-30
2022/03/15 10:01:39;;;;;;;;;;;;;;;10.49;100.00;102606.84;5073367;28;20045;-27
2022/03/15 10:04:12;;;;;;;16.95;11.07;;;;;;;10.55;100.00;102617.00;5073027;28;19927;-27
2022/03/15 10:06:40;;;;;;;18.90;11.77;;;;;;;10.68;100.00;102621.38;5072651;28;20045;-28
2022/03/15 10:09:09;;;;;;;20.05;12.45;;;;;;;10.75;100.00;102615.63;5073047;28;20053;-28
2022/03/15 10:11:37;;;;;;;15.75;10.90;;;;;;;10.78;100.00;102623.47;5071999;28;20638;-27
2022/03/15 10:14:06;;;;;;;16.60;10.95;;;;;;;10.79;100.00;102614.00;5072830;28;20064;-29
2022/03/15 10:16:35;;;;;;;13.55;9.70;;;;;;;10.82;100.00;102622.69;5071622;28;20056;-28
2022/03/15 10:19:04;;;;;;;14.85;10.20;;;;;;;10.89;100.00;102614.13;5071883;28;20060;-27
2022/03/15 10:21:44;;;;;;;15.68;11.93;;;;;;;11.01;100.00;102615.69;5072461;28;20048;-28
2022/03/15 10:24:15;;;;;;;14.63;10.88;;;;;;;11.08;100.00;102604.31;5063742;28;20048;-29
2022/03/15 10:26:43;;;;;;;13.40;9.87;;;;;;;11.14;100.00;102603.28;5071937;28;20401;-29
2022/03/15 10:29:13;;;;;;;15.35;11.30;;;;;;;11.19;100.00;102608.09;5072626;28;20049;-28
2022/03/15 10:31:42;;;;;;;14.32;11.10;;;;;;;11.22;100.00;102602.81;5072257;28;20053;-28
2022/03/15 10:34:12;;;;;;;13.00;9.88;;;;;;;11.28;100.00;102592.56;5071654;28;20516;-29
2022/03/15 10:36:43;;;;;;;13.60;10.35;;;;;;;11.35;100.00;102598.78;5072345;28;20055;-30
2022/03/15 10:39:14;;;;;;;16.57;10.63;;;;;;;11.39;100.00;102588.75;5072780;28;20055;-31
2022/03/15 10:41:43;;;;;;;16.25;11.30;;;;;;;11.43;100.00;102580.69;5071305;28;20326;-29
2022/03/15 10:44:20;;;;;;;17.52;11.73;;;;;;;11.45;100.00;102575.69;5072301;28;20040;-28
2022/03/15 10:47:06;;;;;;;14.25;9.57;;;;;;;11.48;100.00;102569.56;5071533;28;20079;-28
2022/03/15 10:49:47;;;;;;;15.95;10.68;;;;;;;11.54;100.00;102565.72;5072288;28;20426;-28
2022/03/15 10:52:29;;;;;;;23.40;16.58;;;;;;;11.58;100.00;102564.09;5071696;28;20043;-29
2022/03/15 10:54:57;;;;;;;;;;;;;;;11.57;100.00;102562.41;5071810;28;20159;-28
2022/03/15 10:57:25;;;;;;;17.85;13.43;;;;;;;11.61;100.00;102555.16;5071875;28;19920;-28
2022/03/15 10:59:54;;;;;;;16.10;11.60;;;;;;;11.70;100.00;102560.03;5072225;28;20036;-30
2022/03/15 11:02:30;;;;;;;15.75;11.38;;;;;;;11.81;100.00;102555.38;5070010;28;20040;-31
2022/03/15 11:04:57;;;;;;;24.33;14.40;;;;;;;11.86;100.00;102555.44;5068916;28;20040;-34
2022/03/15 11:07:37;;;;;;;16.95;11.60;;;;;;;11.93;100.00;102558.84;5071682;28;20504;-27
2022/03/15 11:10:10;;;;;;;18.55;13.68;;;;;;;11.92;100.00;102547.94;5068504;28;20478;-27
2022/03/15 11:12:38;;;;;;;16.48;12.27;;;;;;;11.87;100.00;102543.13;5071579;28;20041;-28
2022/03/15 11:15:07;;;;;;;20.60;12.20;;;;;;;11.87;100.00;102548.72;5070013;28;20425;-27
2022/03/15 11:17:36;;;;;;;19.30;13.55;;;;;;;11.85;100.00;102541.72;5071611;28;20497;-27
2022/03/15 11:20:07;;;;;;;18.08;12.25;;;;;;;11.88;100.00;102541.19;5071659;28;20052;-28
2022/03/15 11:22:37;;;;;;;19.23;13.65;;;;;;;11.95;100.00;102530.63;5071030;28;20079;-29
2022/03/15 11:25:08;;;;;;;16.65;12.70;;;;;;;11.97;100.00;102523.66;5071591;28;20037;-28